createdAt,value
2022-08-03T00:01:28.348Z,19.03
2022-08-03T00:03:55.475Z,18.91
2022-08-03T00:06:22.539Z,18.83
2022-08-03T00:08:49.678Z,18.47
2022-08-03T00:11:16.715Z,18.87
2022-08-03T00:13:44.044Z,18.83
2022-08-03T00:16:11.230Z,18.78
2022-08-03T00:18:38.291Z,18.75
2022-08-03T00:21:05.962Z,18.44
2022-08-03T00:23:52.048Z,18.41
2022-08-03T00:26:20.931Z,18.66
2022-08-03T00:28:48.853Z,18.26
2022-08-03T00:31:16.242Z,18.43
2022-08-03T00:33:59.468Z,18.48
2022-08-03T00:36:30.323Z,18.24
2022-08-03T00:38:57.543Z,18.35
2022-08-03T00:41:24.701Z,18.33
2022-08-03T00:43:51.864Z,18.28
2022-08-03T00:46:21.758Z,18.09
2022-08-03T00:48:50.454Z,18.20
2022-08-03T00:51:19.126Z,18.17
2022-08-03T00:53:46.208Z,18.10
2022-08-03T00:56:16.990Z,18.00
2022-08-03T00:58:46.091Z,18.08
2022-08-03T01:01:14.211Z,18.03
2022-08-03T01:03:41.725Z,17.99
2022-08-03T01:06:31.129Z,17.92
2022-08-03T01:09:12.179Z,17.90
2022-08-03T01:12:10.835Z,17.82
2022-08-03T01:15:04.014Z,17.84
2022-08-03T01:17:51.409Z,17.78
2022-08-03T01:20:22.210Z,17.74
2022-08-03T01:23:00.620Z,17.65
2022-08-03T01:25:46.203Z,17.82
2022-08-03T01:28:37.165Z,17.77
2022-08-03T01:31:08.322Z,17.72
2022-08-03T01:33:39.152Z,17.63
2022-08-03T01:36:13.047Z,17.71
2022-08-03T01:38:49.397Z,17.69
2022-08-03T01:41:22.537Z,17.53
2022-08-03T01:44:27.652Z,17.55
2022-08-03T01:46:40.429Z,17.39
2022-08-03T01:49:15.997Z,17.46
2022-08-03T01:51:58.401Z,17.40
2022-08-03T01:54:40.822Z,17.36
2022-08-03T01:57:09.641Z,17.33
2022-08-03T01:59:38.695Z,17.29
2022-08-03T02:02:32.060Z,17.22
2022-08-03T02:04:58.286Z,17.25
2022-08-03T02:07:28.959Z,17.25
2022-08-03T02:09:58.320Z,17.30
2022-08-03T02:12:28.210Z,17.28
2022-08-03T02:14:57.658Z,17.18
2022-08-03T02:17:38.669Z,17.26
2022-08-03T02:20:10.812Z,17.04
2022-08-03T02:22:43.577Z,17.17
2022-08-03T02:25:13.439Z,17.16
2022-08-03T02:27:48.658Z,17.07
2022-08-03T02:30:15.938Z,16.99
2022-08-03T02:32:51.455Z,17.00
2022-08-03T02:35:20.972Z,17.04
2022-08-03T02:37:52.288Z,17.03
2022-08-03T02:40:21.390Z,17.04
2022-08-03T02:42:53.198Z,17.05
2022-08-03T02:45:21.212Z,16.75
2022-08-03T02:47:54.279Z,16.67
2022-08-03T02:50:23.440Z,17.06
2022-08-03T02:52:51.926Z,16.87
2022-08-03T02:55:21.558Z,16.78
2022-08-03T02:57:49.862Z,16.83
2022-08-03T03:00:27.195Z,16.71
2022-08-03T03:02:58.460Z,16.77
2022-08-03T03:05:53.655Z,16.40
2022-08-03T03:08:17.771Z,16.76
2022-08-03T03:10:47.061Z,16.65
2022-08-03T03:13:16.001Z,16.68
2022-08-03T03:15:45.165Z,16.65
2022-08-03T03:18:15.921Z,16.45
2022-08-03T03:20:47.677Z,16.57
2022-08-03T03:23:15.411Z,16.60
2022-08-03T03:25:43.498Z,16.57
2022-08-03T03:28:11.369Z,16.55
2022-08-03T03:30:38.608Z,16.26
2022-08-03T03:33:05.782Z,16.64
2022-08-03T03:35:38.967Z,16.53
2022-08-03T03:38:07.200Z,16.54
2022-08-03T03:40:38.444Z,16.38
2022-08-03T03:43:10.514Z,16.35
2022-08-03T03:45:40.465Z,16.40
2022-08-03T03:48:08.372Z,16.46
2022-08-03T03:50:37.448Z,16.40
2022-08-03T03:53:04.859Z,16.42
2022-08-03T03:55:32.071Z,16.44
2022-08-03T03:57:59.849Z,16.28
2022-08-03T04:00:26.985Z,16.00
2022-08-03T04:02:54.049Z,16.14
2022-08-03T04:05:42.961Z,16.03
2022-08-03T04:08:35.366Z,16.06
2022-08-03T04:11:14.831Z,16.22
2022-08-03T04:14:05.037Z,16.25
2022-08-03T04:16:43.819Z,16.24
2022-08-03T04:19:18.533Z,16.29
2022-08-03T04:21:57.285Z,16.28
2022-08-03T04:24:30.331Z,16.10
2022-08-03T04:26:59.466Z,16.42
2022-08-03T04:29:29.073Z,16.44
2022-08-03T04:31:59.827Z,16.51
2022-08-03T04:34:30.793Z,16.52
2022-08-03T04:37:00.453Z,16.56
2022-08-03T04:39:29.902Z,16.69
2022-08-03T04:42:08.223Z,16.38
2022-08-03T04:44:40.365Z,16.57
2022-08-03T04:47:08.523Z,16.76
2022-08-03T04:49:38.080Z,16.69
2022-08-03T04:52:07.963Z,16.94
2022-08-03T04:54:40.415Z,16.98
2022-08-03T04:57:07.565Z,17.04
2022-08-03T04:59:39.094Z,16.80
2022-08-03T05:02:08.058Z,16.84
2022-08-03T05:04:35.109Z,17.13
2022-08-03T05:07:11.728Z,17.10
2022-08-03T05:09:50.549Z,17.20
2022-08-03T05:12:20.064Z,17.28
2022-08-03T05:14:47.172Z,17.21
2022-08-03T05:17:14.642Z,17.30
2022-08-03T05:19:41.658Z,17.41
2022-08-03T05:22:08.701Z,17.60
2022-08-03T05:24:35.752Z,17.69
2022-08-03T05:27:02.801Z,17.80
2022-08-03T05:29:29.834Z,17.90
2022-08-03T05:31:56.957Z,17.96
2022-08-03T05:34:24.024Z,18.02
2022-08-03T05:36:51.085Z,18.08
2022-08-03T05:39:18.121Z,18.14
2022-08-03T05:41:45.206Z,18.17
2022-08-03T05:44:12.245Z,18.36
2022-08-03T05:46:39.308Z,18.44
2022-08-03T05:49:06.507Z,18.15
2022-08-03T05:51:33.605Z,18.49
2022-08-03T05:54:00.666Z,18.56
2022-08-03T05:56:27.741Z,18.64
2022-08-03T05:58:54.921Z,18.72
2022-08-03T06:01:22.506Z,18.54
2022-08-03T06:03:50.759Z,18.88
2022-08-03T06:06:18.746Z,19.08
2022-08-03T06:08:46.615Z,19.15
2022-08-03T06:11:13.714Z,19.36
2022-08-03T06:13:41.098Z,19.35
2022-08-03T06:16:08.505Z,19.34
2022-08-03T06:18:36.215Z,19.36
2022-08-03T06:21:14.042Z,19.44
2022-08-03T06:23:54.055Z,19.51
2022-08-03T06:26:27.615Z,19.30
2022-08-03T06:28:55.229Z,19.62
2022-08-03T06:31:25.824Z,19.60
2022-08-03T06:34:35.150Z,19.69
2022-08-03T06:36:39.981Z,19.65
2022-08-03T06:39:08.246Z,20.05
2022-08-03T06:41:37.676Z,20.26
2022-08-03T06:44:12.397Z,20.39
2022-08-03T06:46:39.789Z,20.42
2022-08-03T06:49:07.577Z,20.50
2022-08-03T06:52:04.977Z,20.78
2022-08-03T06:54:22.257Z,20.86
2022-08-03T06:56:49.464Z,21.16
2022-08-03T07:00:08.893Z,21.28
2022-08-03T07:02:03.884Z,21.41
2022-08-03T07:04:30.893Z,21.50
2022-08-03T07:06:58.460Z,21.60
2022-08-03T07:09:26.641Z,21.85
2022-08-03T07:11:55.035Z,21.90
2022-08-03T07:14:22.085Z,22.11
2022-08-03T07:16:49.167Z,22.26
2022-08-03T07:19:16.615Z,22.47
2022-08-03T07:21:43.679Z,22.64
2022-08-03T07:24:10.747Z,22.75
2022-08-03T07:26:37.811Z,23.01
2022-08-03T07:29:11.773Z,23.18
2022-08-03T07:31:42.686Z,23.20
2022-08-03T07:34:09.816Z,23.15
2022-08-03T07:36:37.092Z,23.71
2022-08-03T07:41:45.865Z,23.83
2022-08-03T07:44:13.237Z,24.20
2022-08-03T07:46:40.367Z,24.31
2022-08-03T07:49:07.510Z,24.41
2022-08-03T07:51:34.851Z,24.56
2022-08-03T07:54:02.076Z,24.69
2022-08-03T07:56:29.510Z,24.82
2022-08-03T07:58:56.860Z,25.01
2022-08-03T08:01:24.231Z,25.11
2022-08-03T08:03:52.410Z,25.18
2022-08-03T08:06:21.888Z,25.20
2022-08-03T08:08:48.941Z,25.30
2022-08-03T08:11:15.969Z,25.59
2022-08-03T08:13:43.016Z,25.64
2022-08-03T08:16:10.018Z,25.67
2022-08-03T08:18:37.053Z,25.73
2022-08-03T08:21:04.215Z,25.83
2022-08-03T08:23:42.353Z,26.00
2022-08-03T08:26:12.181Z,26.07
2022-08-03T08:28:39.842Z,26.18
2022-08-03T08:31:06.958Z,26.22
2022-08-03T08:34:02.743Z,26.36
2022-08-03T08:36:22.147Z,26.40
2022-08-03T08:38:49.240Z,26.41
2022-08-03T08:41:16.885Z,26.64
2022-08-03T08:43:43.941Z,26.81
2022-08-03T08:46:13.142Z,26.73
2022-08-03T08:48:51.943Z,26.74
2022-08-03T08:51:20.589Z,26.89
2022-08-03T08:53:53.643Z,26.96
2022-08-03T08:56:25.296Z,27.18
2022-08-03T08:58:57.942Z,27.14
2022-08-03T09:01:25.463Z,27.53
2022-08-03T09:03:54.100Z,27.58
2022-08-03T09:06:22.807Z,27.39
2022-08-03T09:08:49.917Z,27.48
2022-08-03T09:11:22.202Z,27.51
2022-08-03T09:14:10.205Z,27.56
2022-08-03T09:17:05.144Z,27.61
2022-08-03T09:19:34.351Z,27.73
2022-08-03T09:22:10.825Z,27.54
2022-08-03T09:25:14.735Z,27.78
2022-08-03T09:27:44.780Z,27.83
2022-08-03T09:30:19.120Z,27.95
2022-08-03T09:33:08.320Z,27.94
2022-08-03T09:35:53.939Z,28.20
2022-08-03T09:38:24.155Z,28.18
2022-08-03T09:40:55.943Z,28.43
2022-08-03T09:43:27.414Z,28.44
2022-08-03T09:46:03.673Z,28.41
2022-08-03T09:48:34.621Z,28.47
2022-08-03T09:52:11.021Z,28.39
2022-08-03T09:53:58.885Z,28.60
2022-08-03T09:56:40.025Z,28.81
2022-08-03T09:59:07.981Z,28.91
2022-08-03T10:01:35.912Z,28.77
2022-08-03T10:04:05.170Z,28.65
2022-08-03T10:06:32.774Z,28.55
2022-08-03T10:09:11.575Z,28.55
2022-08-03T10:11:42.147Z,28.54
2022-08-03T10:14:11.325Z,28.62
2022-08-03T10:16:40.197Z,28.62
2022-08-03T10:19:08.377Z,28.92
2022-08-03T10:21:38.465Z,28.81
2022-08-03T10:24:07.483Z,29.22
2022-08-03T10:26:49.873Z,29.26
2022-08-03T10:29:24.985Z,29.42
2022-08-03T10:31:58.721Z,29.56
2022-08-03T10:34:28.980Z,29.54
2022-08-03T10:36:58.781Z,29.37
2022-08-03T10:39:29.174Z,29.28
2022-08-03T10:41:58.720Z,29.25
2022-08-03T10:44:37.066Z,29.31
2022-08-03T10:47:05.002Z,29.22
2022-08-03T10:49:34.738Z,29.42
2022-08-03T10:52:12.905Z,29.68
2022-08-03T10:55:03.290Z,29.84
2022-08-03T10:57:43.358Z,29.66
2022-08-03T11:00:20.222Z,29.62
2022-08-03T11:03:06.532Z,29.50
2022-08-03T11:05:44.920Z,29.86
2022-08-03T11:08:20.981Z,30.28
2022-08-03T11:10:49.609Z,30.58
2022-08-03T11:13:20.251Z,30.56
2022-08-03T11:15:49.965Z,30.52
2022-08-03T11:18:17.505Z,30.22
2022-08-03T11:20:46.233Z,29.99
2022-08-03T11:23:14.851Z,30.33
2022-08-03T11:26:14.013Z,30.64
2022-08-03T11:28:44.439Z,30.59
2022-08-03T11:31:48.599Z,31.11
2022-08-03T11:34:14.390Z,31.04
2022-08-03T11:37:21.401Z,30.94
2022-08-03T11:39:51.128Z,30.83
2022-08-03T11:42:23.905Z,31.09
2022-08-03T11:44:56.463Z,31.09
2022-08-03T11:47:26.818Z,30.87
2022-08-03T11:50:00.564Z,30.78
2022-08-03T11:52:34.977Z,30.86
2022-08-03T11:55:02.301Z,30.95
2022-08-03T11:59:15.214Z,30.68
2022-08-03T12:00:25.856Z,31.28
2022-08-03T12:03:01.757Z,31.46
2022-08-03T12:05:51.297Z,31.24
2022-08-03T12:08:31.322Z,31.07
2022-08-03T12:11:00.544Z,30.98
2022-08-03T12:14:28.931Z,30.57
2022-08-03T12:16:29.753Z,30.82
2022-08-03T12:19:00.116Z,30.97
2022-08-03T12:21:27.682Z,31.11
2022-08-03T12:24:02.795Z,31.44
2022-08-03T12:26:42.260Z,31.42
2022-08-03T12:29:17.212Z,31.30
2022-08-03T12:31:44.373Z,31.30
2022-08-03T12:34:11.985Z,31.32
2022-08-03T12:36:49.678Z,31.10
2022-08-03T12:39:17.235Z,30.97
2022-08-03T12:41:44.841Z,31.15
2022-08-03T12:44:11.894Z,31.24
2022-08-03T12:46:46.991Z,31.29
2022-08-03T12:49:17.260Z,31.37
2022-08-03T12:51:44.349Z,31.55
2022-08-03T12:54:24.846Z,31.50
2022-08-03T12:57:07.525Z,31.98
2022-08-03T12:59:41.188Z,31.93
2022-08-03T13:02:19.019Z,32.19
2022-08-03T13:04:47.848Z,32.33
2022-08-03T13:07:16.378Z,32.42
2022-08-03T13:09:57.510Z,32.58
2022-08-03T13:12:27.365Z,32.75
2022-08-03T13:14:59.645Z,32.80
2022-08-03T13:17:26.813Z,32.69
2022-08-03T13:19:54.331Z,33.02
2022-08-03T13:22:23.893Z,33.04
2022-08-03T13:24:55.793Z,33.25
2022-08-03T13:28:03.156Z,33.18
2022-08-03T13:30:11.295Z,32.78
2022-08-03T13:32:38.434Z,32.89
2022-08-03T13:35:06.658Z,32.96
2022-08-03T13:37:34.423Z,32.79
2022-08-03T13:40:03.029Z,32.68
2022-08-03T13:42:33.358Z,32.89
2022-08-03T13:45:01.237Z,32.87
2022-08-03T13:47:28.585Z,32.83
2022-08-03T13:50:01.032Z,32.95
2022-08-03T13:52:36.103Z,32.71
2022-08-03T13:55:06.164Z,32.52
2022-08-03T13:58:02.615Z,32.54
2022-08-03T14:00:28.052Z,32.80
2022-08-03T14:03:03.979Z,32.92
2022-08-03T14:05:35.687Z,33.02
2022-08-03T14:08:05.304Z,33.06
2022-08-03T14:10:34.290Z,33.24
2022-08-03T14:13:01.407Z,33.66
2022-08-03T14:15:28.708Z,33.72
2022-08-03T14:17:58.471Z,33.79
2022-08-03T14:20:37.799Z,33.55
2022-08-03T14:23:14.187Z,33.80
2022-08-03T14:25:50.021Z,33.99
2022-08-03T14:28:23.088Z,34.18
2022-08-03T14:30:54.483Z,34.00
2022-08-03T14:33:22.419Z,34.01
2022-08-03T14:35:49.930Z,33.86
2022-08-03T14:38:18.005Z,33.93
2022-08-03T14:40:45.272Z,34.00
2022-08-03T14:43:12.523Z,33.50
2022-08-03T14:45:40.335Z,33.90
2022-08-03T14:50:33.567Z,33.84
2022-08-03T14:50:55.287Z,34.11
2022-08-03T14:53:22.703Z,33.97
2022-08-03T14:55:51.854Z,34.11
2022-08-03T14:58:21.540Z,34.01
2022-08-03T15:00:50.518Z,34.09
2022-08-03T15:03:23.868Z,33.68
2022-08-03T15:05:52.861Z,33.60
2022-08-03T15:08:20.906Z,33.80
2022-08-03T15:10:49.313Z,34.51
2022-08-03T15:13:17.488Z,35.15
2022-08-03T15:15:44.863Z,35.16
2022-08-03T15:18:12.132Z,35.10
2022-08-03T15:20:44.944Z,34.85
2022-08-03T15:23:14.788Z,35.06
2022-08-03T15:26:31.915Z,35.21
2022-08-03T15:28:30.602Z,34.01
2022-08-03T15:30:57.745Z,33.39
2022-08-03T15:33:24.794Z,33.40
2022-08-03T15:35:52.898Z,34.08
2022-08-03T15:38:20.090Z,34.35
2022-08-03T15:40:47.151Z,34.44
2022-08-03T15:43:14.503Z,34.56
2022-08-03T15:45:42.854Z,35.02
2022-08-03T15:48:09.898Z,35.07
2022-08-03T15:50:36.994Z,34.79
2022-08-03T15:53:04.629Z,35.15
2022-08-03T15:55:32.170Z,35.47
2022-08-03T15:59:04.506Z,35.23
2022-08-03T16:00:46.594Z,34.81
2022-08-03T16:03:13.725Z,34.08
2022-08-03T16:05:40.768Z,33.83
2022-08-03T16:08:11.785Z,33.60
2022-08-03T16:10:41.296Z,33.36
2022-08-03T16:13:08.588Z,33.09
2022-08-03T16:15:38.542Z,32.97
2022-08-03T16:18:06.744Z,32.91
2022-08-03T16:20:35.290Z,32.90
2022-08-03T16:23:11.205Z,32.89
2022-08-03T16:25:40.408Z,32.98
2022-08-03T16:28:13.926Z,33.86
2022-08-03T16:30:44.221Z,35.55
2022-08-03T16:33:16.621Z,36.31
2022-08-03T16:35:45.395Z,37.19
2022-08-03T16:38:16.764Z,38.01
2022-08-03T16:40:47.421Z,38.85
2022-08-03T16:43:19.016Z,39.53
2022-08-03T16:45:47.158Z,40.27
2022-08-03T16:48:15.327Z,40.53
2022-08-03T16:50:42.930Z,41.02
2022-08-03T16:53:15.658Z,40.49
2022-08-03T16:55:52.333Z,40.67
2022-08-03T16:58:41.566Z,41.64
2022-08-03T17:01:24.019Z,41.03
2022-08-03T17:04:02.726Z,41.66
2022-08-03T17:06:37.970Z,41.39
2022-08-03T17:09:14.923Z,41.01
2022-08-03T17:11:47.614Z,41.54
2022-08-03T17:14:17.473Z,41.86
2022-08-03T17:16:52.175Z,42.14
2022-08-03T17:19:23.649Z,42.40
2022-08-03T17:22:04.812Z,42.92
2022-08-03T17:24:34.385Z,40.47
2022-08-03T17:27:09.251Z,38.64
2022-08-03T17:30:01.143Z,37.08
2022-08-03T17:32:32.330Z,36.31
2022-08-03T17:34:59.625Z,36.23
2022-08-03T17:37:57.540Z,37.43
2022-08-03T17:40:17.535Z,39.48
2022-08-03T17:42:50.654Z,39.71
2022-08-03T17:45:18.892Z,38.83
2022-08-03T17:47:57.768Z,37.06
2022-08-03T17:50:37.389Z,35.62
2022-08-03T17:53:23.977Z,34.75
2022-08-03T17:56:04.558Z,34.08
2022-08-03T17:58:58.640Z,33.74
2022-08-03T18:02:14.465Z,33.35
2022-08-03T18:05:16.603Z,33.02
2022-08-03T18:08:00.850Z,32.74
2022-08-03T18:10:35.777Z,32.49
2022-08-03T18:13:11.007Z,32.29
2022-08-03T18:15:46.015Z,32.20
2022-08-03T18:18:16.006Z,31.98
2022-08-03T18:20:45.493Z,31.87
2022-08-03T18:23:24.605Z,31.79
2022-08-03T18:26:04.730Z,31.66
2022-08-03T18:28:33.691Z,31.48
2022-08-03T18:31:05.617Z,31.39
2022-08-03T18:34:32.021Z,31.18
2022-08-03T18:36:30.148Z,31.05
2022-08-03T18:39:01.764Z,30.83
2022-08-03T18:41:34.325Z,30.90
2022-08-03T18:44:08.004Z,30.77
2022-08-03T18:46:55.366Z,30.58
2022-08-03T18:49:45.024Z,30.42
2022-08-03T18:52:21.634Z,30.30
2022-08-03T18:55:19.955Z,30.07
2022-08-03T18:58:25.667Z,29.67
2022-08-03T19:01:57.870Z,29.44
2022-08-03T19:04:02.966Z,28.94
2022-08-03T19:06:31.732Z,29.07
2022-08-03T19:09:06.788Z,28.92
2022-08-03T19:12:10.970Z,28.80
2022-08-03T19:14:39.234Z,28.72
2022-08-03T19:17:10.630Z,28.20
2022-08-03T19:19:43.418Z,28.62
2022-08-03T19:22:15.961Z,28.48
2022-08-03T19:24:45.665Z,28.45
2022-08-03T19:27:14.140Z,28.09
2022-08-03T19:29:59.142Z,28.26
2022-08-03T19:32:29.404Z,28.18
2022-08-03T19:37:45.363Z,27.95
2022-08-03T19:40:12.655Z,27.67
2022-08-03T19:42:44.417Z,27.57
2022-08-03T19:45:17.050Z,27.54
2022-08-03T19:47:56.525Z,27.48
2022-08-03T19:50:25.586Z,27.33
2022-08-03T19:52:53.144Z,26.92
2022-08-03T19:55:20.339Z,27.32
2022-08-03T19:57:49.023Z,27.04
2022-08-03T20:00:20.029Z,27.09
2022-08-03T20:02:53.842Z,26.93
2022-08-03T20:05:21.315Z,26.96
2022-08-03T20:07:50.154Z,26.89
2022-08-03T20:10:18.806Z,26.85
2022-08-03T20:12:48.363Z,26.75
2022-08-03T20:15:18.128Z,26.62
2022-08-03T20:17:56.662Z,26.61
2022-08-03T20:20:30.788Z,26.52
2022-08-03T20:23:00.756Z,26.50
2022-08-03T20:25:38.027Z,26.37
2022-08-03T20:28:15.155Z,26.37
2022-08-03T20:30:47.301Z,26.32
2022-08-03T20:33:18.571Z,26.21
2022-08-03T20:35:49.162Z,25.94
2022-08-03T20:38:18.432Z,25.99
2022-08-03T20:40:47.356Z,25.82
2022-08-03T20:43:15.584Z,25.89
2022-08-03T20:46:00.811Z,25.77
2022-08-03T20:48:30.190Z,25.56
2022-08-03T20:50:57.311Z,25.55
2022-08-03T20:53:31.149Z,25.41
2022-08-03T20:56:14.518Z,25.35
2022-08-03T20:58:42.453Z,25.49
2022-08-03T21:01:17.693Z,25.31
2022-08-03T21:03:55.573Z,25.15
2022-08-03T21:06:27.694Z,25.05
2022-08-03T21:09:03.853Z,25.02
2022-08-03T21:11:50.257Z,24.91
2022-08-03T21:13:02.505Z,27.78
2022-08-03T21:14:27.849Z,24.91
2022-08-03T21:16:58.402Z,24.77
2022-08-03T21:19:30.306Z,24.71
2022-08-03T21:21:59.191Z,24.69
2022-08-03T21:24:30.385Z,24.61
2022-08-03T21:26:58.260Z,24.63
2022-08-03T21:29:26.714Z,24.47
2022-08-03T21:31:54.249Z,24.38
2022-08-03T21:34:21.509Z,24.31
2022-08-03T21:36:49.218Z,24.20
2022-08-03T21:39:16.366Z,24.09
2022-08-03T21:41:43.532Z,24.01
2022-08-03T21:44:10.915Z,24.03
2022-08-03T21:46:40.605Z,23.98
2022-08-03T21:50:04.478Z,23.92
2022-08-03T21:51:59.503Z,23.93
2022-08-03T21:54:33.357Z,23.86
2022-08-03T21:57:03.853Z,23.68
2022-08-03T21:59:38.021Z,23.67
2022-08-03T22:02:20.835Z,23.81
2022-08-03T22:04:55.753Z,23.80
2022-08-03T22:07:29.131Z,23.72
2022-08-03T22:09:57.578Z,23.70
2022-08-03T22:12:26.884Z,23.69
2022-08-03T22:15:01.430Z,23.47
2022-08-03T22:17:55.079Z,23.27
2022-08-03T22:20:20.737Z,23.22
2022-08-03T22:22:56.117Z,23.18
2022-08-03T22:25:29.789Z,22.74
2022-08-03T22:28:01.287Z,23.03
2022-08-03T22:30:29.052Z,22.99
2022-08-03T22:32:57.349Z,22.88
2022-08-03T22:35:27.326Z,22.80
2022-08-03T22:37:57.269Z,22.77
2022-08-03T22:40:25.902Z,22.66
2022-08-03T22:42:54.248Z,22.68
2022-08-03T22:46:06.876Z,22.64
2022-08-03T22:48:08.579Z,22.54
2022-08-03T22:50:35.838Z,22.21
2022-08-03T22:53:03.452Z,22.43
2022-08-03T22:55:31.054Z,22.35
2022-08-03T22:57:58.317Z,22.26
2022-08-03T23:00:25.463Z,22.23
2022-08-03T23:02:54.722Z,21.90
2022-08-03T23:06:02.103Z,22.22
2022-08-03T23:08:14.897Z,22.08
2022-08-03T23:10:46.779Z,22.16
2022-08-03T23:13:17.146Z,22.10
2022-08-03T23:15:51.110Z,21.96
2022-08-03T23:18:21.880Z,21.95
2022-08-03T23:20:53.094Z,21.98
2022-08-03T23:23:20.937Z,21.81
2022-08-03T23:25:50.547Z,21.70
2022-08-03T23:28:18.628Z,21.48
2022-08-03T23:30:46.780Z,21.40
2022-08-03T23:33:16.337Z,21.60
2022-08-03T23:36:18.668Z,21.65
2022-08-03T23:38:49.161Z,21.60
2022-08-03T23:41:17.468Z,21.56
2022-08-03T23:43:53.869Z,21.33
2022-08-03T23:46:22.573Z,21.42
2022-08-03T23:48:50.745Z,21.31
2022-08-03T23:51:49.379Z,21.32
2022-08-03T23:54:36.926Z,21.34
2022-08-03T23:57:49.880Z,21.29
